Pagrindinis puslapis
METAR-TAF:

METAR-TAF

Oro uostai :

Neiva, Kolumbija

platuma: 02-58N, ilguma: 075-18W, Aukštis: 439 m

Dabartinis oras

Ataskaita buvo paskelbta 26 minutes, ne 13:00 UTC
Vėjas 4 kt iš Pietų, svyruoja nuo Pietryčių ir Pietvakarių
Temperatūra 25°C
Drėgmė 89%
Slėgis 1016 hPa
Matomumas: 5000 m
Mažai debesys ne aukštis 1700 ft
Apsiniaukę ne aukštis 11000 ft
Liūtis kaimynystėje

METAR: SKNV 281300Z 18004KT 140V220 5000 VCSH FEW017 OVC110 25/23 A2999 RMK VCSH SW/W

Laikas: 08:26 (13:26 UTC)


TAF: trūkstamas

Orai ataskaitas ir orų prognozės (METAR, TAF).

turimą stotys yra geltonos ir raudonos taškus žemėlapyje.

Perkelti pele per norėdami pamatyti stoties vardą.

Tada spustelėkite, norėdami matyti oro stebėjimo ir prognozės.

Norėdami pakeisti žemėlapį: spustelėkite ant žalios mygtukų su juodo kryžiaus žemyn,; žalią mygtuką su brūkšneliu, jei norite nutolinti; arba žalių rodyklių gretimoms žemėlapius.


METAR-TAF: